sensor_id;sensor_type;location;lat;lon;timestamp;P1;durP1;ratioP1;P2;durP2;ratioP2
7813;SDS011;3952;48.364;16.022;2023-08-17T00:00:02;11.77;;;10.43;;
7813;SDS011;3952;48.364;16.022;2023-08-17T00:02:33;15.77;;;11.63;;
7813;SDS011;3952;48.364;16.022;2023-08-17T00:05:01;10.80;;;10.00;;
7813;SDS011;3952;48.364;16.022;2023-08-17T00:07:28;10.87;;;9.90;;
7813;SDS011;3952;48.364;16.022;2023-08-17T00:09:55;11.13;;;10.33;;
7813;SDS011;3952;48.364;16.022;2023-08-17T00:12:22;10.30;;;9.40;;
7813;SDS011;3952;48.364;16.022;2023-08-17T00:14:52;13.00;;;10.53;;
7813;SDS011;3952;48.364;16.022;2023-08-17T00:17:19;11.43;;;9.37;;
7813;SDS011;3952;48.364;16.022;2023-08-17T00:19:46;11.43;;;10.43;;
7813;SDS011;3952;48.364;16.022;2023-08-17T00:22:15;10.67;;;9.70;;
7813;SDS011;3952;48.364;16.022;2023-08-17T00:24:42;12.37;;;11.10;;
7813;SDS011;3952;48.364;16.022;2023-08-17T00:27:10;11.77;;;10.90;;
7813;SDS011;3952;48.364;16.022;2023-08-17T00:29:37;25.27;;;11.27;;
7813;SDS011;3952;48.364;16.022;2023-08-17T00:32:06;12.13;;;10.97;;
7813;SDS011;3952;48.364;16.022;2023-08-17T00:34:33;12.67;;;9.30;;
7813;SDS011;3952;48.364;16.022;2023-08-17T00:37:00;91.40;;;15.73;;
7813;SDS011;3952;48.364;16.022;2023-08-17T00:39:27;14.37;;;13.33;;
7813;SDS011;3952;48.364;16.022;2023-08-17T00:41:54;86.53;;;17.90;;
7813;SDS011;3952;48.364;16.022;2023-08-17T00:44:21;72.50;;;16.47;;
7813;SDS011;3952;48.364;16.022;2023-08-17T00:46:49;62.70;;;15.87;;
7813;SDS011;3952;48.364;16.022;2023-08-17T00:49:17;16.17;;;14.73;;
7813;SDS011;3952;48.364;16.022;2023-08-17T00:51:45;17.23;;;13.57;;
7813;SDS011;3952;48.364;16.022;2023-08-17T00:54:12;23.60;;;13.20;;
7813;SDS011;3952;48.364;16.022;2023-08-17T00:56:40;14.67;;;13.47;;
7813;SDS011;3952;48.364;16.022;2023-08-17T00:59:07;16.30;;;14.57;;
7813;SDS011;3952;48.364;16.022;2023-08-17T01:01:34;16.73;;;14.33;;
7813;SDS011;3952;48.364;16.022;2023-08-17T01:04:02;15.93;;;14.83;;
7813;SDS011;3952;48.364;16.022;2023-08-17T01:06:31;15.53;;;14.30;;
7813;SDS011;3952;48.364;16.022;2023-08-17T01:08:58;16.10;;;14.63;;
7813;SDS011;3952;48.364;16.022;2023-08-17T01:11:35;15.33;;;14.13;;
7813;SDS011;3952;48.364;16.022;2023-08-17T01:14:09;13.83;;;12.73;;
7813;SDS011;3952;48.364;16.022;2023-08-17T01:16:40;14.83;;;13.73;;
7813;SDS011;3952;48.364;16.022;2023-08-17T01:19:16;14.57;;;13.40;;
7813;SDS011;3952;48.364;16.022;2023-08-17T01:21:54;14.60;;;13.40;;
7813;SDS011;3952;48.364;16.022;2023-08-17T01:24:25;13.03;;;12.23;;
7813;SDS011;3952;48.364;16.022;2023-08-17T01:26:53;11.83;;;11.13;;
7813;SDS011;3952;48.364;16.022;2023-08-17T01:29:20;11.07;;;10.47;;
7813;SDS011;3952;48.364;16.022;2023-08-17T01:31:49;12.63;;;11.83;;
7813;SDS011;3952;48.364;16.022;2023-08-17T01:34:24;11.80;;;10.73;;
7813;SDS011;3952;48.364;16.022;2023-08-17T01:36:55;11.47;;;10.87;;
7813;SDS011;3952;48.364;16.022;2023-08-17T01:39:27;12.87;;;11.53;;
7813;SDS011;3952;48.364;16.022;2023-08-17T01:41:58;10.90;;;10.30;;
7813;SDS011;3952;48.364;16.022;2023-08-17T01:44:26;12.70;;;11.40;;
7813;SDS011;3952;48.364;16.022;2023-08-17T01:46:54;12.33;;;11.30;;
7813;SDS011;3952;48.364;16.022;2023-08-17T01:49:21;11.87;;;11.07;;
7813;SDS011;3952;48.364;16.022;2023-08-17T01:51:48;11.20;;;10.50;;
7813;SDS011;3952;48.364;16.022;2023-08-17T01:54:15;10.90;;;10.23;;
7813;SDS011;3952;48.364;16.022;2023-08-17T01:56:44;10.30;;;9.70;;
7813;SDS011;3952;48.364;16.022;2023-08-17T01:59:11;12.40;;;11.60;;
7813;SDS011;3952;48.364;16.022;2023-08-17T02:01:38;30.53;;;12.33;;
7813;SDS011;3952;48.364;16.022;2023-08-17T02:04:06;13.97;;;11.97;;
7813;SDS011;3952;48.364;16.022;2023-08-17T02:06:33;13.80;;;12.87;;
7813;SDS011;3952;48.364;16.022;2023-08-17T02:09:00;12.23;;;11.33;;
7813;SDS011;3952;48.364;16.022;2023-08-17T02:11:27;12.40;;;11.63;;
7813;SDS011;3952;48.364;16.022;2023-08-17T02:13:56;11.83;;;11.13;;
7813;SDS011;3952;48.364;16.022;2023-08-17T02:16:23;12.17;;;11.27;;
7813;SDS011;3952;48.364;16.022;2023-08-17T02:18:50;17.33;;;12.90;;
7813;SDS011;3952;48.364;16.022;2023-08-17T02:21:17;29.53;;;13.70;;
7813;SDS011;3952;48.364;16.022;2023-08-17T02:23:44;11.77;;;10.97;;
7813;SDS011;3952;48.364;16.022;2023-08-17T02:26:11;12.67;;;11.87;;
7813;SDS011;3952;48.364;16.022;2023-08-17T02:28:39;11.90;;;11.10;;
7813;SDS011;3952;48.364;16.022;2023-08-17T02:31:07;11.40;;;10.60;;
7813;SDS011;3952;48.364;16.022;2023-08-17T02:33:34;11.60;;;11.00;;
7813;SDS011;3952;48.364;16.022;2023-08-17T02:36:02;11.60;;;10.70;;
7813;SDS011;3952;48.364;16.022;2023-08-17T02:38:30;11.73;;;11.03;;
7813;SDS011;3952;48.364;16.022;2023-08-17T02:40:57;10.03;;;9.53;;
7813;SDS011;3952;48.364;16.022;2023-08-17T02:43:24;10.17;;;9.57;;
7813;SDS011;3952;48.364;16.022;2023-08-17T02:45:51;9.83;;;9.10;;
7813;SDS011;3952;48.364;16.022;2023-08-17T02:48:20;9.87;;;8.90;;
7813;SDS011;3952;48.364;16.022;2023-08-17T02:50:47;8.70;;;8.30;;
7813;SDS011;3952;48.364;16.022;2023-08-17T02:53:14;8.37;;;7.93;;
7813;SDS011;3952;48.364;16.022;2023-08-17T02:55:41;8.17;;;7.67;;
7813;SDS011;3952;48.364;16.022;2023-08-17T02:58:08;8.50;;;8.00;;
7813;SDS011;3952;48.364;16.022;2023-08-17T03:00:35;7.77;;;6.83;;
7813;SDS011;3952;48.364;16.022;2023-08-17T03:03:03;11.57;;;7.67;;
7813;SDS011;3952;48.364;16.022;2023-08-17T03:05:31;8.10;;;7.30;;
7813;SDS011;3952;48.364;16.022;2023-08-17T03:08:00;18.13;;;9.07;;
7813;SDS011;3952;48.364;16.022;2023-08-17T03:10:27;8.27;;;7.87;;
7813;SDS011;3952;48.364;16.022;2023-08-17T03:12:55;8.73;;;8.23;;
7813;SDS011;3952;48.364;16.022;2023-08-17T03:15:22;10.53;;;9.73;;
7813;SDS011;3952;48.364;16.022;2023-08-17T03:17:49;9.20;;;8.70;;
7813;SDS011;3952;48.364;16.022;2023-08-17T03:20:16;8.37;;;7.87;;
7813;SDS011;3952;48.364;16.022;2023-08-17T03:22:45;8.43;;;7.70;;
7813;SDS011;3952;48.364;16.022;2023-08-17T03:25:12;7.83;;;7.43;;
7813;SDS011;3952;48.364;16.022;2023-08-17T03:27:39;7.33;;;7.03;;
7813;SDS011;3952;48.364;16.022;2023-08-17T03:30:07;7.23;;;6.83;;
7813;SDS011;3952;48.364;16.022;2023-08-17T03:32:34;7.83;;;7.33;;
7813;SDS011;3952;48.364;16.022;2023-08-17T03:35:02;7.73;;;7.03;;
7813;SDS011;3952;48.364;16.022;2023-08-17T03:37:29;8.57;;;7.83;;
7813;SDS011;3952;48.364;16.022;2023-08-17T03:39:58;8.27;;;7.83;;
7813;SDS011;3952;48.364;16.022;2023-08-17T03:42:26;8.57;;;7.87;;
7813;SDS011;3952;48.364;16.022;2023-08-17T03:44:53;7.00;;;6.70;;
7813;SDS011;3952;48.364;16.022;2023-08-17T03:47:21;7.67;;;7.27;;
7813;SDS011;3952;48.364;16.022;2023-08-17T03:49:48;7.40;;;6.77;;
7813;SDS011;3952;48.364;16.022;2023-08-17T03:52:15;8.37;;;7.77;;
7813;SDS011;3952;48.364;16.022;2023-08-17T03:54:42;7.77;;;7.00;;
7813;SDS011;3952;48.364;16.022;2023-08-17T03:57:11;7.57;;;7.17;;
7813;SDS011;3952;48.364;16.022;2023-08-17T03:59:38;7.27;;;6.80;;
7813;SDS011;3952;48.364;16.022;2023-08-17T04:02:06;11.97;;;7.37;;
7813;SDS011;3952;48.364;16.022;2023-08-17T04:04:33;8.60;;;7.80;;
7813;SDS011;3952;48.364;16.022;2023-08-17T04:07:00;7.57;;;6.90;;
7813;SDS011;3952;48.364;16.022;2023-08-17T04:09:27;7.13;;;6.83;;
7813;SDS011;3952;48.364;16.022;2023-08-17T04:11:55;6.57;;;6.27;;
7813;SDS011;3952;48.364;16.022;2023-08-17T04:14:24;7.80;;;7.17;;
7813;SDS011;3952;48.364;16.022;2023-08-17T04:16:51;9.60;;;7.30;;
7813;SDS011;3952;48.364;16.022;2023-08-17T04:19:18;8.70;;;7.33;;
7813;SDS011;3952;48.364;16.022;2023-08-17T04:21:46;8.30;;;7.73;;
7813;SDS011;3952;48.364;16.022;2023-08-17T04:24:13;6.77;;;6.47;;
7813;SDS011;3952;48.364;16.022;2023-08-17T04:26:40;6.20;;;5.90;;
7813;SDS011;3952;48.364;16.022;2023-08-17T04:29:07;7.63;;;7.33;;
7813;SDS011;3952;48.364;16.022;2023-08-17T04:31:35;6.93;;;6.60;;
7813;SDS011;3952;48.364;16.022;2023-08-17T04:34:03;7.30;;;7.00;;
7813;SDS011;3952;48.364;16.022;2023-08-17T04:36:30;8.03;;;7.63;;
7813;SDS011;3952;48.364;16.022;2023-08-17T04:38:57;8.67;;;8.10;;
7813;SDS011;3952;48.364;16.022;2023-08-17T04:41:25;9.90;;;9.00;;
7813;SDS011;3952;48.364;16.022;2023-08-17T04:43:52;9.40;;;8.87;;
7813;SDS011;3952;48.364;16.022;2023-08-17T04:46:19;8.83;;;8.37;;
7813;SDS011;3952;48.364;16.022;2023-08-17T04:48:48;9.17;;;8.67;;
7813;SDS011;3952;48.364;16.022;2023-08-17T04:51:15;8.30;;;7.80;;
7813;SDS011;3952;48.364;16.022;2023-08-17T04:53:42;6.90;;;6.60;;
7813;SDS011;3952;48.364;16.022;2023-08-17T04:56:10;7.73;;;7.33;;
7813;SDS011;3952;48.364;16.022;2023-08-17T04:58:37;8.00;;;7.60;;
7813;SDS011;3952;48.364;16.022;2023-08-17T05:01:04;7.73;;;7.33;;
7813;SDS011;3952;48.364;16.022;2023-08-17T05:03:31;7.20;;;6.90;;
7813;SDS011;3952;48.364;16.022;2023-08-17T05:06:00;7.20;;;6.90;;
7813;SDS011;3952;48.364;16.022;2023-08-17T05:08:27;7.30;;;7.00;;
7813;SDS011;3952;48.364;16.022;2023-08-17T05:10:54;8.07;;;7.57;;
7813;SDS011;3952;48.364;16.022;2023-08-17T05:13:21;7.13;;;6.83;;
7813;SDS011;3952;48.364;16.022;2023-08-17T05:15:49;7.97;;;7.43;;
7813;SDS011;3952;48.364;16.022;2023-08-17T05:18:16;8.00;;;7.60;;
7813;SDS011;3952;48.364;16.022;2023-08-17T05:20:43;7.77;;;7.13;;
7813;SDS011;3952;48.364;16.022;2023-08-17T05:23:12;8.50;;;8.00;;
7813;SDS011;3952;48.364;16.022;2023-08-17T05:25:39;7.73;;;7.33;;
7813;SDS011;3952;48.364;16.022;2023-08-17T05:28:06;7.83;;;7.43;;
7813;SDS011;3952;48.364;16.022;2023-08-17T05:30:33;7.87;;;7.47;;
7813;SDS011;3952;48.364;16.022;2023-08-17T05:33:01;7.73;;;7.33;;
7813;SDS011;3952;48.364;16.022;2023-08-17T05:35:28;8.13;;;7.70;;
7813;SDS011;3952;48.364;16.022;2023-08-17T05:37:55;8.77;;;8.17;;
7813;SDS011;3952;48.364;16.022;2023-08-17T05:40:24;8.87;;;8.37;;
7813;SDS011;3952;48.364;16.022;2023-08-17T05:42:51;9.33;;;8.83;;
7813;SDS011;3952;48.364;16.022;2023-08-17T05:45:18;9.30;;;8.83;;
7813;SDS011;3952;48.364;16.022;2023-08-17T05:47:45;10.10;;;9.23;;
7813;SDS011;3952;48.364;16.022;2023-08-17T05:50:12;10.17;;;9.67;;
7813;SDS011;3952;48.364;16.022;2023-08-17T05:52:40;10.67;;;10.07;;
7813;SDS011;3952;48.364;16.022;2023-08-17T05:55:07;9.97;;;9.37;;
7813;SDS011;3952;48.364;16.022;2023-08-17T05:57:36;13.53;;;12.53;;
7813;SDS011;3952;48.364;16.022;2023-08-17T06:00:04;13.87;;;12.87;;
7813;SDS011;3952;48.364;16.022;2023-08-17T06:02:33;12.60;;;11.80;;
7813;SDS011;3952;48.364;16.022;2023-08-17T06:05:00;13.23;;;12.23;;
7813;SDS011;3952;48.364;16.022;2023-08-17T06:07:28;12.83;;;12.00;;
7813;SDS011;3952;48.364;16.022;2023-08-17T06:09:55;14.10;;;13.13;;
7813;SDS011;3952;48.364;16.022;2023-08-17T06:12:22;13.50;;;12.50;;
7813;SDS011;3952;48.364;16.022;2023-08-17T06:14:51;13.67;;;12.83;;
7813;SDS011;3952;48.364;16.022;2023-08-17T06:17:18;13.77;;;12.87;;
7813;SDS011;3952;48.364;16.022;2023-08-17T06:19:45;15.80;;;14.60;;
7813;SDS011;3952;48.364;16.022;2023-08-17T06:22:12;15.13;;;13.63;;
7813;SDS011;3952;48.364;16.022;2023-08-17T06:24:39;16.80;;;15.60;;
7813;SDS011;3952;48.364;16.022;2023-08-17T06:27:06;17.70;;;16.27;;
7813;SDS011;3952;48.364;16.022;2023-08-17T06:29:34;15.60;;;14.50;;
7813;SDS011;3952;48.364;16.022;2023-08-17T06:32:02;16.63;;;15.53;;
7813;SDS011;3952;48.364;16.022;2023-08-17T06:34:30;17.17;;;15.73;;
7813;SDS011;3952;48.364;16.022;2023-08-17T06:36:57;19.40;;;17.13;;
7813;SDS011;3952;48.364;16.022;2023-08-17T06:39:25;18.20;;;16.50;;
7813;SDS011;3952;48.364;16.022;2023-08-17T06:41:52;18.37;;;17.03;;
7813;SDS011;3952;48.364;16.022;2023-08-17T06:44:20;17.23;;;15.83;;
7813;SDS011;3952;48.364;16.022;2023-08-17T06:46:47;16.60;;;15.30;;
7813;SDS011;3952;48.364;16.022;2023-08-17T06:49:16;18.27;;;16.87;;
7813;SDS011;3952;48.364;16.022;2023-08-17T06:51:43;18.07;;;16.67;;
7813;SDS011;3952;48.364;16.022;2023-08-17T06:54:10;17.47;;;16.00;;
7813;SDS011;3952;48.364;16.022;2023-08-17T06:56:37;19.60;;;17.73;;
7813;SDS011;3952;48.364;16.022;2023-08-17T06:59:04;17.47;;;16.07;;
7813;SDS011;3952;48.364;16.022;2023-08-17T07:01:32;17.63;;;16.23;;
7813;SDS011;3952;48.364;16.022;2023-08-17T07:03:59;17.13;;;15.73;;
7813;SDS011;3952;48.364;16.022;2023-08-17T07:06:27;17.60;;;16.10;;
7813;SDS011;3952;48.364;16.022;2023-08-17T07:08:55;17.10;;;15.83;;
7813;SDS011;3952;48.364;16.022;2023-08-17T07:11:22;16.90;;;15.70;;
7813;SDS011;3952;48.364;16.022;2023-08-17T07:13:50;16.57;;;15.47;;
7813;SDS011;3952;48.364;16.022;2023-08-17T07:16:17;15.20;;;14.07;;
7813;SDS011;3952;48.364;16.022;2023-08-17T07:18:44;18.02;;;16.58;;
7813;SDS011;3952;48.364;16.022;2023-08-17T07:21:11;17.63;;;16.15;;
7813;SDS011;3952;48.364;16.022;2023-08-17T07:23:43;16.10;;;15.00;;
7813;SDS011;3952;48.364;16.022;2023-08-17T07:26:12;16.05;;;14.93;;
7813;SDS011;3952;48.364;16.022;2023-08-17T07:28:39;17.00;;;15.85;;
7813;SDS011;3952;48.364;16.022;2023-08-17T07:31:06;17.52;;;16.23;;
7813;SDS011;3952;48.364;16.022;2023-08-17T07:33:33;16.77;;;15.70;;
7813;SDS011;3952;48.364;16.022;2023-08-17T07:36:00;17.40;;;15.90;;
7813;SDS011;3952;48.364;16.022;2023-08-17T07:38:28;16.88;;;15.50;;
7813;SDS011;3952;48.364;16.022;2023-08-17T07:40:56;16.85;;;15.68;;
7813;SDS011;3952;48.364;16.022;2023-08-17T07:43:24;17.10;;;15.98;;
7813;SDS011;3952;48.364;16.022;2023-08-17T07:45:54;17.48;;;16.33;;
7813;SDS011;3952;48.364;16.022;2023-08-17T07:48:21;16.00;;;15.02;;
7813;SDS011;3952;48.364;16.022;2023-08-17T07:50:49;16.70;;;15.32;;
7813;SDS011;3952;48.364;16.022;2023-08-17T07:53:17;16.00;;;14.82;;
7813;SDS011;3952;48.364;16.022;2023-08-17T07:55:44;15.80;;;14.13;;
7813;SDS011;3952;48.364;16.022;2023-08-17T07:58:12;14.70;;;13.80;;
7813;SDS011;3952;48.364;16.022;2023-08-17T08:00:40;17.25;;;15.77;;
7813;SDS011;3952;48.364;16.022;2023-08-17T08:03:07;15.07;;;14.05;;
7813;SDS011;3952;48.364;16.022;2023-08-17T08:05:34;13.75;;;12.90;;
7813;SDS011;3952;48.364;16.022;2023-08-17T08:08:01;15.15;;;13.88;;
7813;SDS011;3952;48.364;16.022;2023-08-17T08:10:28;12.27;;;11.57;;
7813;SDS011;3952;48.364;16.022;2023-08-17T08:12:55;14.15;;;13.05;;
7813;SDS011;3952;48.364;16.022;2023-08-17T08:15:24;13.63;;;12.50;;
7813;SDS011;3952;48.364;16.022;2023-08-17T08:17:51;12.70;;;11.85;;
7813;SDS011;3952;48.364;16.022;2023-08-17T08:20:19;10.93;;;10.23;;
7813;SDS011;3952;48.364;16.022;2023-08-17T08:22:47;12.43;;;11.20;;
7813;SDS011;3952;48.364;16.022;2023-08-17T08:25:14;11.57;;;10.77;;
7813;SDS011;3952;48.364;16.022;2023-08-17T08:27:41;12.82;;;11.68;;
7813;SDS011;3952;48.364;16.022;2023-08-17T08:30:08;11.52;;;10.80;;
7813;SDS011;3952;48.364;16.022;2023-08-17T08:32:37;12.15;;;11.07;;
7813;SDS011;3952;48.364;16.022;2023-08-17T08:35:04;10.93;;;10.23;;
7813;SDS011;3952;48.364;16.022;2023-08-17T08:37:32;11.77;;;10.98;;
7813;SDS011;3952;48.364;16.022;2023-08-17T08:39:59;10.05;;;9.45;;
7813;SDS011;3952;48.364;16.022;2023-08-17T08:42:26;11.35;;;10.20;;
7813;SDS011;3952;48.364;16.022;2023-08-17T08:44:54;9.10;;;8.52;;
7813;SDS011;3952;48.364;16.022;2023-08-17T08:47:21;10.13;;;9.38;;
7813;SDS011;3952;48.364;16.022;2023-08-17T08:49:53;9.38;;;8.68;;
7813;SDS011;3952;48.364;16.022;2023-08-17T08:52:28;11.27;;;10.20;;
7813;SDS011;3952;48.364;16.022;2023-08-17T08:55:01;8.70;;;8.20;;
7813;SDS011;3952;48.364;16.022;2023-08-17T08:57:34;9.18;;;8.35;;
7813;SDS011;3952;48.364;16.022;2023-08-17T09:00:03;9.30;;;8.80;;
7813;SDS011;3952;48.364;16.022;2023-08-17T09:02:32;8.98;;;8.48;;
7813;SDS011;3952;48.364;16.022;2023-08-17T09:05:02;8.68;;;7.88;;
7813;SDS011;3952;48.364;16.022;2023-08-17T09:07:31;8.10;;;7.60;;
7813;SDS011;3952;48.364;16.022;2023-08-17T09:10:01;6.50;;;6.20;;
7813;SDS011;3952;48.364;16.022;2023-08-17T09:12:29;6.45;;;6.10;;
7813;SDS011;3952;48.364;16.022;2023-08-17T09:14:57;7.55;;;7.05;;
7813;SDS011;3952;48.364;16.022;2023-08-17T09:17:24;7.63;;;7.03;;
7813;SDS011;3952;48.364;16.022;2023-08-17T09:19:52;7.47;;;7.18;;
7813;SDS011;3952;48.364;16.022;2023-08-17T09:22:24;7.20;;;6.65;;
7813;SDS011;3952;48.364;16.022;2023-08-17T09:25:02;7.95;;;7.38;;
7813;SDS011;3952;48.364;16.022;2023-08-17T09:27:31;8.38;;;7.78;;
7813;SDS011;3952;48.364;16.022;2023-08-17T09:30:00;7.97;;;7.55;;
7813;SDS011;3952;48.364;16.022;2023-08-17T09:32:29;8.20;;;7.65;;
7813;SDS011;3952;48.364;16.022;2023-08-17T09:34:57;8.35;;;7.75;;
7813;SDS011;3952;48.364;16.022;2023-08-17T09:37:30;7.50;;;7.10;;
7813;SDS011;3952;48.364;16.022;2023-08-17T09:39:57;7.70;;;7.20;;
7813;SDS011;3952;48.364;16.022;2023-08-17T09:42:24;7.63;;;7.13;;
7813;SDS011;3952;48.364;16.022;2023-08-17T09:44:52;7.63;;;7.22;;
7813;SDS011;3952;48.364;16.022;2023-08-17T09:47:21;8.68;;;7.50;;
7813;SDS011;3952;48.364;16.022;2023-08-17T09:49:49;7.38;;;6.95;;
7813;SDS011;3952;48.364;16.022;2023-08-17T09:52:18;7.57;;;6.97;;
7813;SDS011;3952;48.364;16.022;2023-08-17T09:54:47;6.95;;;6.38;;
7813;SDS011;3952;48.364;16.022;2023-08-17T09:57:14;7.43;;;6.93;;
7813;SDS011;3952;48.364;16.022;2023-08-17T09:59:42;7.32;;;6.93;;
7813;SDS011;3952;48.364;16.022;2023-08-17T10:02:13;8.25;;;7.50;;
7813;SDS011;3952;48.364;16.022;2023-08-17T10:04:45;8.23;;;7.78;;
7813;SDS011;3952;48.364;16.022;2023-08-17T10:07:17;7.75;;;7.35;;
7813;SDS011;3952;48.364;16.022;2023-08-17T10:09:49;8.00;;;7.50;;
7813;SDS011;3952;48.364;16.022;2023-08-17T10:12:23;8.40;;;7.90;;
7813;SDS011;3952;48.364;16.022;2023-08-17T10:14:55;7.45;;;6.93;;
7813;SDS011;3952;48.364;16.022;2023-08-17T10:17:30;7.88;;;7.28;;
7813;SDS011;3952;48.364;16.022;2023-08-17T10:20:06;7.07;;;6.63;;
7813;SDS011;3952;48.364;16.022;2023-08-17T10:22:36;7.00;;;6.55;;
7813;SDS011;3952;48.364;16.022;2023-08-17T10:25:11;6.97;;;6.65;;
7813;SDS011;3952;48.364;16.022;2023-08-17T10:27:39;7.75;;;7.05;;
7813;SDS011;3952;48.364;16.022;2023-08-17T10:30:07;7.70;;;7.25;;
7813;SDS011;3952;48.364;16.022;2023-08-17T10:32:36;7.80;;;7.20;;
7813;SDS011;3952;48.364;16.022;2023-08-17T10:35:04;6.97;;;6.43;;
7813;SDS011;3952;48.364;16.022;2023-08-17T10:37:32;7.38;;;6.72;;
7813;SDS011;3952;48.364;16.022;2023-08-17T10:40:00;6.82;;;6.53;;
7813;SDS011;3952;48.364;16.022;2023-08-17T10:42:32;7.03;;;6.63;;
7813;SDS011;3952;48.364;16.022;2023-08-17T10:45:01;7.40;;;6.88;;
7813;SDS011;3952;48.364;16.022;2023-08-17T10:47:49;7.00;;;6.47;;
7813;SDS011;3952;48.364;16.022;2023-08-17T10:50:20;6.40;;;5.85;;
7813;SDS011;3952;48.364;16.022;2023-08-17T10:52:48;6.90;;;6.30;;
7813;SDS011;3952;48.364;16.022;2023-08-17T10:55:16;6.43;;;6.13;;
7813;SDS011;3952;48.364;16.022;2023-08-17T10:57:47;9.95;;;6.13;;
7813;SDS011;3952;48.364;16.022;2023-08-17T11:00:18;6.40;;;5.93;;
7813;SDS011;3952;48.364;16.022;2023-08-17T11:02:52;6.28;;;5.72;;
7813;SDS011;3952;48.364;16.022;2023-08-17T11:05:42;5.97;;;5.53;;
7813;SDS011;3952;48.364;16.022;2023-08-17T11:08:19;5.93;;;5.63;;
7813;SDS011;3952;48.364;16.022;2023-08-17T11:10:47;5.50;;;5.20;;
7813;SDS011;3952;48.364;16.022;2023-08-17T11:13:25;5.80;;;5.40;;
7813;SDS011;3952;48.364;16.022;2023-08-17T11:15:54;5.20;;;4.93;;
7813;SDS011;3952;48.364;16.022;2023-08-17T11:18:22;5.47;;;5.07;;
7813;SDS011;3952;48.364;16.022;2023-08-17T11:20:49;5.95;;;5.55;;
7813;SDS011;3952;48.364;16.022;2023-08-17T11:23:17;5.40;;;5.18;;
7813;SDS011;3952;48.364;16.022;2023-08-17T11:25:45;6.15;;;5.65;;
7813;SDS011;3952;48.364;16.022;2023-08-17T11:28:12;5.63;;;5.22;;
7813;SDS011;3952;48.364;16.022;2023-08-17T11:30:42;6.18;;;5.60;;
7813;SDS011;3952;48.364;16.022;2023-08-17T11:33:09;5.70;;;5.40;;
7813;SDS011;3952;48.364;16.022;2023-08-17T11:35:37;5.25;;;5.00;;
7813;SDS011;3952;48.364;16.022;2023-08-17T11:38:04;6.72;;;5.07;;
7813;SDS011;3952;48.364;16.022;2023-08-17T11:40:32;5.82;;;5.50;;
7813;SDS011;3952;48.364;16.022;2023-08-17T11:43:00;6.45;;;5.80;;
7813;SDS011;3952;48.364;16.022;2023-08-17T11:45:27;5.40;;;5.07;;
7813;SDS011;3952;48.364;16.022;2023-08-17T11:47:56;6.70;;;5.68;;
7813;SDS011;3952;48.364;16.022;2023-08-17T11:50:24;5.43;;;5.10;;
7813;SDS011;3952;48.364;16.022;2023-08-17T11:52:52;5.30;;;4.85;;
7813;SDS011;3952;48.364;16.022;2023-08-17T11:55:19;5.50;;;5.20;;
7813;SDS011;3952;48.364;16.022;2023-08-17T11:57:46;5.03;;;4.72;;
7813;SDS011;3952;48.364;16.022;2023-08-17T12:00:17;5.07;;;4.68;;
7813;SDS011;3952;48.364;16.022;2023-08-17T12:02:46;5.78;;;5.25;;
7813;SDS011;3952;48.364;16.022;2023-08-17T12:05:20;4.82;;;4.53;;
7813;SDS011;3952;48.364;16.022;2023-08-17T12:07:49;4.80;;;4.32;;
7813;SDS011;3952;48.364;16.022;2023-08-17T12:10:17;4.53;;;4.22;;
7813;SDS011;3952;48.364;16.022;2023-08-17T12:12:46;4.75;;;4.45;;
7813;SDS011;3952;48.364;16.022;2023-08-17T12:15:16;4.65;;;4.30;;
7813;SDS011;3952;48.364;16.022;2023-08-17T12:17:44;4.05;;;3.85;;
7813;SDS011;3952;48.364;16.022;2023-08-17T12:20:15;4.47;;;4.10;;
7813;SDS011;3952;48.364;16.022;2023-08-17T12:22:45;5.60;;;4.60;;
7813;SDS011;3952;48.364;16.022;2023-08-17T12:25:13;4.28;;;4.07;;
7813;SDS011;3952;48.364;16.022;2023-08-17T12:27:40;4.95;;;4.40;;
7813;SDS011;3952;48.364;16.022;2023-08-17T12:30:11;4.32;;;4.13;;
7813;SDS011;3952;48.364;16.022;2023-08-17T12:32:39;4.28;;;3.95;;
7813;SDS011;3952;48.364;16.022;2023-08-17T12:35:07;4.20;;;4.00;;
7813;SDS011;3952;48.364;16.022;2023-08-17T12:37:34;4.00;;;3.80;;
7813;SDS011;3952;48.364;16.022;2023-08-17T12:40:03;4.40;;;3.80;;
7813;SDS011;3952;48.364;16.022;2023-08-17T12:42:30;5.15;;;3.83;;
7813;SDS011;3952;48.364;16.022;2023-08-17T12:44:57;3.75;;;3.53;;
7813;SDS011;3952;48.364;16.022;2023-08-17T12:47:25;4.00;;;3.80;;
7813;SDS011;3952;48.364;16.022;2023-08-17T12:49:52;4.00;;;3.70;;
7813;SDS011;3952;48.364;16.022;2023-08-17T12:52:19;3.40;;;3.20;;
7813;SDS011;3952;48.364;16.022;2023-08-17T12:54:46;3.70;;;3.50;;
7813;SDS011;3952;48.364;16.022;2023-08-17T12:57:15;4.32;;;3.60;;
7813;SDS011;3952;48.364;16.022;2023-08-17T12:59:42;3.95;;;3.65;;
7813;SDS011;3952;48.364;16.022;2023-08-17T13:02:09;4.15;;;3.83;;
7813;SDS011;3952;48.364;16.022;2023-08-17T13:04:36;4.20;;;3.92;;
7813;SDS011;3952;48.364;16.022;2023-08-17T13:07:03;4.85;;;4.50;;
7813;SDS011;3952;48.364;16.022;2023-08-17T13:09:30;6.25;;;4.53;;
7813;SDS011;3952;48.364;16.022;2023-08-17T13:11:58;4.65;;;4.35;;
7813;SDS011;3952;48.364;16.022;2023-08-17T13:14:26;4.65;;;4.43;;
7813;SDS011;3952;48.364;16.022;2023-08-17T13:16:53;5.00;;;4.65;;
7813;SDS011;3952;48.364;16.022;2023-08-17T13:19:20;4.80;;;4.60;;
7813;SDS011;3952;48.364;16.022;2023-08-17T13:21:48;5.00;;;4.47;;
7813;SDS011;3952;48.364;16.022;2023-08-17T13:24:15;4.88;;;4.57;;
7813;SDS011;3952;48.364;16.022;2023-08-17T13:26:42;5.03;;;4.75;;
7813;SDS011;3952;48.364;16.022;2023-08-17T13:29:09;4.95;;;4.65;;
7813;SDS011;3952;48.364;16.022;2023-08-17T13:31:38;4.90;;;4.53;;
7813;SDS011;3952;48.364;16.022;2023-08-17T13:34:05;4.72;;;4.43;;
7813;SDS011;3952;48.364;16.022;2023-08-17T13:36:32;5.32;;;4.93;;
7813;SDS011;3952;48.364;16.022;2023-08-17T13:38:59;5.35;;;4.95;;
7813;SDS011;3952;48.364;16.022;2023-08-17T13:41:26;5.55;;;5.05;;
7813;SDS011;3952;48.364;16.022;2023-08-17T13:43:54;5.13;;;4.90;;
7813;SDS011;3952;48.364;16.022;2023-08-17T13:46:22;5.15;;;4.65;;
7813;SDS011;3952;48.364;16.022;2023-08-17T13:48:51;5.13;;;4.82;;
7813;SDS011;3952;48.364;16.022;2023-08-17T13:51:19;5.20;;;5.00;;
7813;SDS011;3952;48.364;16.022;2023-08-17T13:53:46;6.47;;;4.72;;
7813;SDS011;3952;48.364;16.022;2023-08-17T13:56:13;5.35;;;4.82;;
7813;SDS011;3952;48.364;16.022;2023-08-17T13:58:41;5.30;;;5.00;;
7813;SDS011;3952;48.364;16.022;2023-08-17T14:01:08;4.95;;;4.70;;
7813;SDS011;3952;48.364;16.022;2023-08-17T14:03:36;5.13;;;4.72;;
7813;SDS011;3952;48.364;16.022;2023-08-17T14:06:05;5.00;;;4.70;;
7813;SDS011;3952;48.364;16.022;2023-08-17T14:08:32;5.03;;;4.65;;
7813;SDS011;3952;48.364;16.022;2023-08-17T14:10:59;5.57;;;4.70;;
7813;SDS011;3952;48.364;16.022;2023-08-17T14:13:26;5.50;;;5.10;;
7813;SDS011;3952;48.364;16.022;2023-08-17T14:15:54;5.00;;;4.43;;
7813;SDS011;3952;48.364;16.022;2023-08-17T14:18:23;4.50;;;4.30;;
7813;SDS011;3952;48.364;16.022;2023-08-17T14:20:50;4.35;;;4.00;;
7813;SDS011;3952;48.364;16.022;2023-08-17T14:23:19;4.38;;;3.75;;
7813;SDS011;3952;48.364;16.022;2023-08-17T14:25:46;4.30;;;4.10;;
7813;SDS011;3952;48.364;16.022;2023-08-17T14:28:13;4.00;;;3.70;;
7813;SDS011;3952;48.364;16.022;2023-08-17T14:30:40;4.00;;;3.80;;
7813;SDS011;3952;48.364;16.022;2023-08-17T14:33:08;4.15;;;3.92;;
7813;SDS011;3952;48.364;16.022;2023-08-17T14:35:35;4.40;;;4.10;;
7813;SDS011;3952;48.364;16.022;2023-08-17T14:38:02;4.90;;;4.60;;
7813;SDS011;3952;48.364;16.022;2023-08-17T14:40:31;4.40;;;4.10;;
7813;SDS011;3952;48.364;16.022;2023-08-17T14:42:59;8.50;;;4.72;;
7813;SDS011;3952;48.364;16.022;2023-08-17T14:45:26;5.53;;;4.57;;
7813;SDS011;3952;48.364;16.022;2023-08-17T14:47:53;4.88;;;4.47;;
7813;SDS011;3952;48.364;16.022;2023-08-17T14:50:23;5.60;;;4.45;;
7813;SDS011;3952;48.364;16.022;2023-08-17T14:52:50;4.68;;;4.28;;
7813;SDS011;3952;48.364;16.022;2023-08-17T14:55:17;4.10;;;3.80;;